You are listening to:
KJFK Tower - New York, New York, United States

KJFK 051651Z 00000KT 10SM FEW140 BKN210 BKN260 08/M07 A3040 RMK AO2 SLP292 T00831072

If stream doesn't start automatically press the play button
If stream stops then reload player then press play